sensor_id;sensor_type;location;lat;lon;timestamp;temperature;humidity
51837;DHT22;38941;53.254;6.600;2023-06-22T00:01:47;18.50;99.90
51837;DHT22;38941;53.254;6.600;2023-06-22T00:03:48;18.40;99.90
51837;DHT22;38941;53.254;6.600;2023-06-22T00:05:53;18.40;99.90
51837;DHT22;38941;53.254;6.600;2023-06-22T00:07:54;17.50;99.90
51837;DHT22;38941;53.254;6.600;2023-06-22T00:09:55;18.30;99.90
51837;DHT22;38941;53.254;6.600;2023-06-22T00:11:56;18.30;99.90
51837;DHT22;38941;53.254;6.600;2023-06-22T00:13:58;18.30;99.90
51837;DHT22;38941;53.254;6.600;2023-06-22T00:16:00;18.30;99.90
51837;DHT22;38941;53.254;6.600;2023-06-22T00:18:00;18.20;99.90
51837;DHT22;38941;53.254;6.600;2023-06-22T00:20:03;18.30;99.90
51837;DHT22;38941;53.254;6.600;2023-06-22T00:22:06;18.20;99.90
51837;DHT22;38941;53.254;6.600;2023-06-22T00:24:09;18.20;99.90
51837;DHT22;38941;53.254;6.600;2023-06-22T00:26:10;18.20;99.90
51837;DHT22;38941;53.254;6.600;2023-06-22T00:28:11;18.20;99.90
51837;DHT22;38941;53.254;6.600;2023-06-22T00:30:16;18.20;99.90
51837;DHT22;38941;53.254;6.600;2023-06-22T00:32:16;18.20;99.90
51837;DHT22;38941;53.254;6.600;2023-06-22T00:34:19;18.10;99.90
51837;DHT22;38941;53.254;6.600;2023-06-22T00:36:19;18.10;99.90
51837;DHT22;38941;53.254;6.600;2023-06-22T00:38:20;18.10;99.90
51837;DHT22;38941;53.254;6.600;2023-06-22T00:40:21;18.10;99.90
51837;DHT22;38941;53.254;6.600;2023-06-22T00:42:22;18.00;99.90
51837;DHT22;38941;53.254;6.600;2023-06-22T00:44:24;18.10;99.90
51837;DHT22;38941;53.254;6.600;2023-06-22T00:46:25;18.10;99.90
51837;DHT22;38941;53.254;6.600;2023-06-22T00:48:26;18.00;99.90
51837;DHT22;38941;53.254;6.600;2023-06-22T00:50:32;18.00;99.90
51837;DHT22;38941;53.254;6.600;2023-06-22T00:52:34;18.00;99.90
51837;DHT22;38941;53.254;6.600;2023-06-22T00:54:38;18.00;99.90
51837;DHT22;38941;53.254;6.600;2023-06-22T00:56:40;18.10;99.90
51837;DHT22;38941;53.254;6.600;2023-06-22T00:58:42;17.80;99.90
51837;DHT22;38941;53.254;6.600;2023-06-22T01:00:43;17.70;99.90
51837;DHT22;38941;53.254;6.600;2023-06-22T01:02:46;17.60;99.90
51837;DHT22;38941;53.254;6.600;2023-06-22T01:04:48;17.60;99.90
51837;DHT22;38941;53.254;6.600;2023-06-22T01:07:42;17.50;99.90
51837;DHT22;38941;53.254;6.600;2023-06-22T01:09:28;17.50;99.90
51837;DHT22;38941;53.254;6.600;2023-06-22T01:11:45;17.40;99.90
51837;DHT22;38941;53.254;6.600;2023-06-22T01:16:14;17.40;99.90
51837;DHT22;38941;53.254;6.600;2023-06-22T01:18:18;17.30;99.90
51837;DHT22;38941;53.254;6.600;2023-06-22T01:20:21;17.30;99.90
51837;DHT22;38941;53.254;6.600;2023-06-22T01:22:24;17.20;99.90
51837;DHT22;38941;53.254;6.600;2023-06-22T01:29:27;17.00;99.90
51837;DHT22;38941;53.254;6.600;2023-06-22T01:31:29;17.00;99.90
51837;DHT22;38941;53.254;6.600;2023-06-22T01:33:34;17.00;99.90
51837;DHT22;38941;53.254;6.600;2023-06-22T01:35:35;17.00;99.90
51837;DHT22;38941;53.254;6.600;2023-06-22T01:37:37;17.00;99.90
51837;DHT22;38941;53.254;6.600;2023-06-22T01:39:39;17.00;99.90
51837;DHT22;38941;53.254;6.600;2023-06-22T01:41:41;17.00;99.90
51837;DHT22;38941;53.254;6.600;2023-06-22T01:43:45;17.00;99.90
51837;DHT22;38941;53.254;6.600;2023-06-22T01:45:46;17.00;99.90
51837;DHT22;38941;53.254;6.600;2023-06-22T01:47:47;16.90;99.90
51837;DHT22;38941;53.254;6.600;2023-06-22T01:49:49;16.90;99.90
51837;DHT22;38941;53.254;6.600;2023-06-22T01:51:52;17.00;99.90
51837;DHT22;38941;53.254;6.600;2023-06-22T01:53:55;16.90;99.90
51837;DHT22;38941;53.254;6.600;2023-06-22T01:55:57;16.80;99.90
51837;DHT22;38941;53.254;6.600;2023-06-22T01:57:58;16.90;99.90
51837;DHT22;38941;53.254;6.600;2023-06-22T02:00:02;16.80;99.90
51837;DHT22;38941;53.254;6.600;2023-06-22T02:02:11;16.80;99.90
51837;DHT22;38941;53.254;6.600;2023-06-22T02:04:21;16.80;99.90
51837;DHT22;38941;53.254;6.600;2023-06-22T02:06:30;16.80;99.90
51837;DHT22;38941;53.254;6.600;2023-06-22T02:08:48;16.80;99.90
51837;DHT22;38941;53.254;6.600;2023-06-22T02:10:52;16.80;99.90
51837;DHT22;38941;53.254;6.600;2023-06-22T02:12:54;16.80;99.90
51837;DHT22;38941;53.254;6.600;2023-06-22T02:14:59;16.80;99.90
51837;DHT22;38941;53.254;6.600;2023-06-22T02:17:02;16.80;99.90
51837;DHT22;38941;53.254;6.600;2023-06-22T02:19:05;16.80;99.90
51837;DHT22;38941;53.254;6.600;2023-06-22T02:21:06;16.80;99.90
51837;DHT22;38941;53.254;6.600;2023-06-22T02:23:07;16.80;99.90
51837;DHT22;38941;53.254;6.600;2023-06-22T02:25:10;16.80;99.90
51837;DHT22;38941;53.254;6.600;2023-06-22T02:27:12;16.80;99.90
51837;DHT22;38941;53.254;6.600;2023-06-22T02:29:13;16.80;99.90
51837;DHT22;38941;53.254;6.600;2023-06-22T02:31:14;16.70;99.90
51837;DHT22;38941;53.254;6.600;2023-06-22T02:33:14;16.70;99.90
51837;DHT22;38941;53.254;6.600;2023-06-22T02:35:16;16.70;99.90
51837;DHT22;38941;53.254;6.600;2023-06-22T02:37:18;16.70;99.90
51837;DHT22;38941;53.254;6.600;2023-06-22T02:39:23;16.70;99.90
51837;DHT22;38941;53.254;6.600;2023-06-22T02:41:24;16.60;99.90
51837;DHT22;38941;53.254;6.600;2023-06-22T02:43:25;16.60;99.90
51837;DHT22;38941;53.254;6.600;2023-06-22T02:45:26;16.60;99.90
51837;DHT22;38941;53.254;6.600;2023-06-22T02:47:27;16.60;99.90
51837;DHT22;38941;53.254;6.600;2023-06-22T02:49:30;16.50;99.90
51837;DHT22;38941;53.254;6.600;2023-06-22T02:51:33;16.50;99.90
51837;DHT22;38941;53.254;6.600;2023-06-22T02:53:34;16.50;99.90
51837;DHT22;38941;53.254;6.600;2023-06-22T02:55:36;16.50;99.90
51837;DHT22;38941;53.254;6.600;2023-06-22T02:57:37;16.50;99.90
51837;DHT22;38941;53.254;6.600;2023-06-22T02:59:45;16.50;99.90
51837;DHT22;38941;53.254;6.600;2023-06-22T03:01:47;16.50;99.90
51837;DHT22;38941;53.254;6.600;2023-06-22T03:03:49;16.50;99.90
51837;DHT22;38941;53.254;6.600;2023-06-22T03:05:50;16.50;99.90
51837;DHT22;38941;53.254;6.600;2023-06-22T03:07:54;16.50;99.90
51837;DHT22;38941;53.254;6.600;2023-06-22T03:09:58;16.50;99.90
51837;DHT22;38941;53.254;6.600;2023-06-22T03:11:59;16.50;99.90
51837;DHT22;38941;53.254;6.600;2023-06-22T03:14:03;16.50;99.90
51837;DHT22;38941;53.254;6.600;2023-06-22T03:16:05;16.50;99.90
